createdAt,value
2017-07-23T00:00:51.642Z,97.00
2017-07-23T00:03:19.213Z,97.00
2017-07-23T00:05:46.854Z,97.40
2017-07-23T00:08:14.439Z,97.50
2017-07-23T00:10:41.997Z,97.40
2017-07-23T00:13:09.581Z,97.40
2017-07-23T00:15:37.164Z,97.90
2017-07-23T00:18:04.730Z,97.60
2017-07-23T00:20:33.118Z,98.90
2017-07-23T00:23:00.709Z,98.60
2017-07-23T00:25:28.281Z,98.70
2017-07-23T00:27:55.930Z,98.10
2017-07-23T00:30:23.497Z,97.90
2017-07-23T00:32:51.095Z,97.70
2017-07-23T00:35:18.650Z,97.80
2017-07-23T00:37:46.274Z,97.60
2017-07-23T00:40:13.910Z,97.60
2017-07-23T00:42:41.587Z,97.70
2017-07-23T00:45:09.165Z,97.80
2017-07-23T00:47:36.734Z,98.10
2017-07-23T00:50:04.294Z,97.40
2017-07-23T00:52:31.887Z,97.50
2017-07-23T00:54:59.454Z,97.20
2017-07-23T00:57:27.044Z,97.60
2017-07-23T00:59:54.732Z,98.00
2017-07-23T01:02:22.307Z,97.70
2017-07-23T01:04:49.950Z,98.00
2017-07-23T01:07:17.525Z,97.60
2017-07-23T01:09:45.138Z,97.70
2017-07-23T01:12:12.715Z,97.80
2017-07-23T01:14:40.275Z,97.70
2017-07-23T01:17:07.880Z,97.90
2017-07-23T01:19:35.450Z,97.70
2017-07-23T01:22:03.018Z,97.40
2017-07-23T01:24:30.593Z,98.00
2017-07-23T01:26:58.174Z,98.20
2017-07-23T01:29:26.509Z,98.20
2017-07-23T01:31:54.079Z,98.20
2017-07-23T01:34:21.642Z,98.80
2017-07-23T01:36:49.235Z,98.30
2017-07-23T01:39:17.595Z,98.00
2017-07-23T01:41:45.160Z,98.00
2017-07-23T01:44:12.724Z,97.60
2017-07-23T01:46:40.315Z,97.70
2017-07-23T01:49:07.873Z,97.40
2017-07-23T01:51:35.457Z,97.40
2017-07-23T01:54:03.011Z,98.00
2017-07-23T01:56:30.628Z,98.20
2017-07-23T01:58:58.203Z,98.10
2017-07-23T02:01:26.537Z,98.40
2017-07-23T02:03:54.114Z,98.30
2017-07-23T02:06:21.802Z,98.20
2017-07-23T02:08:50.130Z,98.20
2017-07-23T02:11:17.693Z,98.20
2017-07-23T02:13:45.273Z,98.10
2017-07-23T02:16:12.838Z,98.40
2017-07-23T02:18:40.418Z,98.40
2017-07-23T02:21:08.778Z,98.20
2017-07-23T02:23:36.480Z,98.20
2017-07-23T02:26:04.066Z,97.90
2017-07-23T02:28:31.629Z,98.20
2017-07-23T02:30:59.190Z,98.40
2017-07-23T02:33:26.791Z,98.00
2017-07-23T02:35:54.361Z,97.90
2017-07-23T02:38:21.946Z,98.00
2017-07-23T02:40:49.538Z,98.20
2017-07-23T02:43:17.095Z,98.80
2017-07-23T02:45:44.669Z,98.50
2017-07-23T02:48:12.251Z,98.30
2017-07-23T02:50:39.827Z,99.20
2017-07-23T02:53:07.407Z,98.90
2017-07-23T02:55:35.731Z,99.00
2017-07-23T02:58:03.290Z,98.90
2017-07-23T03:00:30.875Z,98.80
2017-07-23T03:02:58.453Z,98.70
2017-07-23T03:05:26.819Z,98.80
2017-07-23T03:07:54.407Z,98.80
2017-07-23T03:10:22.119Z,98.80
2017-07-23T03:12:49.793Z,98.70
2017-07-23T03:15:17.369Z,98.90
2017-07-23T03:17:44.991Z,99.10
2017-07-23T03:20:12.572Z,99.20
2017-07-23T03:22:40.177Z,99.50
2017-07-23T03:25:08.580Z,99.80
2017-07-23T03:27:36.150Z,99.80
2017-07-23T03:30:03.765Z,99.80
2017-07-23T03:32:32.112Z,99.90
2017-07-23T03:34:59.679Z,99.90
2017-07-23T03:37:27.294Z,99.70
2017-07-23T03:39:54.868Z,99.90
2017-07-23T03:42:22.443Z,99.90
2017-07-23T03:44:50.231Z,99.90
2017-07-23T03:47:17.821Z,99.90
2017-07-23T03:49:45.381Z,99.90
2017-07-23T03:52:13.719Z,98.70
2017-07-23T03:54:41.318Z,98.70
2017-07-23T03:57:08.909Z,99.10
2017-07-23T03:59:36.550Z,98.70
2017-07-23T04:02:04.122Z,98.50
2017-07-23T04:04:31.751Z,98.50
2017-07-23T04:06:59.320Z,98.90
2017-07-23T04:09:26.912Z,99.00
2017-07-23T04:11:54.491Z,99.10
2017-07-23T04:14:22.047Z,99.50
2017-07-23T04:16:49.681Z,99.70
2017-07-23T04:19:18.001Z,99.80
2017-07-23T04:21:45.558Z,99.70
2017-07-23T04:24:13.140Z,99.80
2017-07-23T04:26:40.693Z,99.70
2017-07-23T04:29:08.302Z,99.60
2017-07-23T04:31:35.945Z,99.60
2017-07-23T04:34:03.505Z,99.90
2017-07-23T04:36:31.066Z,99.30
2017-07-23T04:38:58.631Z,99.40
2017-07-23T04:41:26.226Z,99.60
2017-07-23T04:43:53.825Z,99.50
2017-07-23T04:46:21.399Z,99.40
2017-07-23T04:48:49.243Z,99.40
2017-07-23T04:51:16.846Z,99.40
2017-07-23T04:53:44.426Z,99.20
2017-07-23T04:56:12.779Z,99.00
2017-07-23T04:58:40.347Z,98.90
2017-07-23T05:01:07.910Z,99.00
2017-07-23T05:03:35.490Z,99.20
2017-07-23T05:06:03.070Z,98.90
2017-07-23T05:08:30.662Z,99.30
2017-07-23T05:10:58.231Z,99.30
2017-07-23T05:13:25.806Z,99.20
2017-07-23T05:15:53.373Z,99.10
2017-07-23T05:18:21.055Z,99.30
2017-07-23T05:20:49.729Z,98.60
2017-07-23T05:23:17.550Z,98.60
2017-07-23T05:25:45.149Z,98.00
2017-07-23T05:28:12.760Z,97.80
2017-07-23T05:30:40.327Z,97.10
2017-07-23T05:33:08.303Z,98.10
2017-07-23T05:35:35.937Z,96.20
2017-07-23T05:38:03.502Z,95.50
2017-07-23T05:40:31.084Z,95.30
2017-07-23T05:42:58.759Z,95.40
2017-07-23T05:45:26.334Z,95.30
2017-07-23T05:47:53.947Z,95.30
2017-07-23T05:50:21.574Z,95.30
2017-07-23T05:52:49.186Z,95.10
2017-07-23T05:55:16.752Z,92.00
2017-07-23T05:57:44.374Z,87.80
2017-07-23T06:00:12.727Z,75.50
2017-07-23T06:02:40.280Z,75.10
2017-07-23T06:05:07.850Z,71.90
2017-07-23T06:07:35.447Z,68.90
2017-07-23T06:10:04.006Z,63.10
2017-07-23T06:12:31.595Z,63.00
2017-07-23T06:14:59.201Z,59.50
2017-07-23T06:17:26.782Z,56.60
2017-07-23T06:19:54.439Z,57.50
2017-07-23T06:22:22.010Z,54.40
2017-07-23T06:24:49.569Z,54.90
2017-07-23T06:27:17.179Z,54.60
2017-07-23T06:29:44.737Z,52.50
2017-07-23T06:32:12.581Z,52.50
2017-07-23T06:34:40.182Z,53.20
2017-07-23T06:37:07.748Z,53.20
2017-07-23T06:39:35.324Z,52.10
2017-07-23T06:42:02.905Z,51.50
2017-07-23T06:44:30.548Z,51.60
2017-07-23T06:46:58.158Z,50.00
2017-07-23T06:49:26.625Z,48.20
2017-07-23T06:51:54.234Z,48.00
2017-07-23T06:54:21.879Z,44.80
2017-07-23T06:56:49.460Z,44.90
2017-07-23T06:59:17.014Z,44.50
2017-07-23T07:01:44.629Z,46.50
2017-07-23T07:04:12.210Z,46.90
2017-07-23T07:06:39.794Z,45.10
2017-07-23T07:09:07.367Z,49.40
2017-07-23T07:11:34.986Z,48.70
2017-07-23T07:14:02.546Z,49.40
2017-07-23T07:16:30.178Z,53.50
2017-07-23T07:18:57.781Z,57.70
2017-07-23T07:21:25.387Z,60.30
2017-07-23T07:23:53.021Z,63.80
2017-07-23T07:26:20.986Z,61.30
2017-07-23T07:28:48.552Z,63.50
2017-07-23T07:31:16.133Z,57.10
2017-07-23T07:33:43.752Z,51.80
2017-07-23T07:36:11.314Z,52.80
2017-07-23T07:38:39.689Z,57.80
2017-07-23T07:41:07.310Z,57.60
2017-07-23T07:43:34.882Z,58.80
2017-07-23T07:46:02.587Z,61.70
2017-07-23T07:48:30.168Z,64.10
2017-07-23T07:50:57.762Z,65.80
2017-07-23T07:53:25.323Z,65.90
2017-07-23T07:55:52.927Z,68.80
2017-07-23T07:58:20.554Z,66.30
2017-07-23T08:00:48.166Z,68.30
2017-07-23T08:03:15.746Z,67.40
2017-07-23T08:05:43.334Z,68.30
2017-07-23T08:08:10.941Z,69.40
2017-07-23T08:10:39.280Z,65.70
2017-07-23T08:13:06.970Z,65.70
2017-07-23T08:15:34.558Z,64.50
2017-07-23T08:18:02.131Z,65.40
2017-07-23T08:20:29.746Z,65.20
2017-07-23T08:22:57.338Z,68.10
2017-07-23T08:25:24.921Z,68.30
2017-07-23T08:27:52.570Z,69.40
2017-07-23T08:30:20.201Z,71.50
2017-07-23T08:32:47.855Z,70.40
2017-07-23T08:35:16.215Z,59.90
2017-07-23T08:37:43.814Z,60.70
2017-07-23T08:40:11.394Z,53.50
2017-07-23T08:42:39.030Z,51.50
2017-07-23T08:45:06.611Z,51.50
2017-07-23T08:47:34.230Z,54.50
2017-07-23T08:50:01.811Z,57.30
2017-07-23T08:52:29.374Z,55.80
2017-07-23T08:54:56.974Z,56.30
2017-07-23T08:57:24.558Z,54.50
2017-07-23T08:59:52.140Z,52.70
2017-07-23T09:02:19.814Z,52.70
2017-07-23T09:04:48.153Z,57.00
2017-07-23T09:07:15.748Z,56.70
2017-07-23T09:09:43.573Z,57.30
2017-07-23T09:12:11.149Z,56.50
2017-07-23T09:14:38.738Z,57.70
2017-07-23T09:17:06.330Z,58.70
2017-07-23T09:19:36.157Z,58.50
2017-07-23T09:22:03.717Z,61.40
2017-07-23T09:24:32.127Z,61.10
2017-07-23T09:26:59.684Z,55.40
2017-07-23T09:29:27.263Z,58.00
2017-07-23T09:31:54.854Z,54.90
2017-07-23T09:34:22.438Z,52.60
2017-07-23T09:36:50.020Z,53.20
2017-07-23T09:39:17.839Z,47.50
2017-07-23T09:41:45.430Z,49.90
2017-07-23T09:44:13.017Z,50.40
2017-07-23T09:46:40.627Z,56.00
2017-07-23T09:49:08.201Z,53.20
2017-07-23T09:51:36.642Z,51.50
2017-07-23T10:03:49.300Z,47.90
2017-07-23T10:06:16.877Z,51.50
2017-07-23T10:08:44.457Z,51.70
2017-07-23T10:11:12.049Z,51.50
2017-07-23T10:13:39.678Z,52.70
2017-07-23T10:16:08.722Z,47.60
2017-07-23T10:18:36.358Z,47.40
2017-07-23T10:21:03.966Z,45.00
2017-07-23T10:23:31.540Z,43.50
2017-07-23T10:25:59.948Z,42.10
2017-07-23T10:28:28.275Z,40.00
2017-07-23T10:30:55.870Z,39.90
2017-07-23T10:33:23.475Z,41.10
2017-07-23T10:35:51.057Z,40.40
2017-07-23T10:38:18.665Z,44.60
2017-07-23T10:40:47.099Z,44.10
2017-07-23T10:43:14.682Z,43.80
2017-07-23T10:45:42.290Z,44.30
2017-07-23T10:48:09.856Z,45.10
2017-07-23T10:50:37.451Z,44.50
2017-07-23T10:53:05.058Z,45.50
2017-07-23T10:55:33.389Z,48.10
2017-07-23T10:58:00.966Z,48.10
2017-07-23T11:00:29.216Z,47.60
2017-07-23T11:02:56.796Z,47.60
2017-07-23T11:05:24.385Z,48.40
2017-07-23T11:07:51.957Z,47.30
2017-07-23T11:10:20.291Z,46.40
2017-07-23T11:12:48.623Z,46.40
2017-07-23T11:15:16.937Z,47.60
2017-07-23T11:17:44.516Z,47.60
2017-07-23T11:20:12.976Z,49.20
2017-07-23T11:22:40.533Z,50.80
2017-07-23T11:25:08.131Z,52.10
2017-07-23T11:27:36.262Z,53.80
2017-07-23T11:30:04.824Z,56.10
2017-07-23T11:32:32.523Z,56.50
2017-07-23T11:35:02.007Z,55.90
2017-07-23T11:37:33.463Z,56.10
2017-07-23T11:40:02.456Z,56.60
2017-07-23T11:42:30.477Z,56.60
2017-07-23T11:44:58.326Z,54.90
2017-07-23T11:47:25.881Z,56.40
2017-07-23T11:49:53.451Z,56.60
2017-07-23T11:52:21.065Z,55.50
2017-07-23T11:54:48.668Z,58.30
2017-07-23T11:57:16.238Z,57.40
2017-07-23T11:59:43.814Z,56.60
2017-07-23T12:02:11.418Z,54.90
2017-07-23T12:04:38.993Z,51.90
2017-07-23T12:07:06.596Z,51.20
2017-07-23T12:09:34.194Z,48.20
2017-07-23T12:12:01.770Z,48.80
2017-07-23T12:14:29.362Z,49.90
2017-07-23T12:16:56.926Z,51.00
2017-07-23T12:19:24.491Z,47.90
2017-07-23T12:21:52.077Z,46.70
2017-07-23T12:24:19.634Z,47.80
2017-07-23T12:26:47.658Z,47.80
2017-07-23T12:29:15.250Z,47.00
2017-07-23T12:31:42.813Z,50.10
2017-07-23T12:34:10.398Z,46.60
2017-07-23T12:36:38.899Z,49.60
2017-07-23T12:39:06.460Z,48.90
2017-07-23T12:41:34.046Z,48.40
2017-07-23T12:44:01.651Z,45.10
2017-07-23T12:46:29.217Z,46.40
2017-07-23T12:48:57.559Z,48.80
2017-07-23T12:51:26.045Z,48.80
2017-07-23T12:53:53.648Z,50.10
2017-07-23T12:56:21.208Z,50.40
2017-07-23T12:58:48.811Z,50.20
2017-07-23T13:01:16.485Z,47.90
2017-07-23T13:03:44.045Z,48.20
2017-07-23T13:06:11.652Z,49.20
2017-07-23T13:08:40.014Z,51.30
2017-07-23T13:11:07.608Z,50.60
2017-07-23T13:13:35.950Z,52.30
2017-07-23T13:16:03.531Z,52.30
2017-07-23T13:18:31.738Z,52.50
2017-07-23T13:20:59.500Z,52.30
2017-07-23T13:23:27.077Z,52.80
2017-07-23T13:25:54.685Z,51.90
2017-07-23T13:28:22.247Z,51.40
2017-07-23T13:30:49.893Z,51.30
2017-07-23T13:33:17.466Z,50.10
2017-07-23T13:35:45.202Z,49.60
2017-07-23T13:38:12.809Z,49.90
2017-07-23T13:40:40.407Z,49.60
2017-07-23T13:43:08.997Z,50.90
2017-07-23T13:45:37.341Z,50.80
2017-07-23T13:48:05.705Z,52.60
2017-07-23T13:50:33.316Z,52.30
2017-07-23T13:53:00.898Z,53.10
2017-07-23T13:55:28.493Z,52.30
2017-07-23T13:57:56.225Z,52.30
2017-07-23T14:00:23.823Z,51.20
2017-07-23T14:02:51.421Z,51.90
2017-07-23T14:05:19.033Z,52.40
2017-07-23T14:07:46.648Z,51.00
2017-07-23T14:10:14.302Z,49.70
2017-07-23T14:12:41.879Z,49.50
2017-07-23T14:15:09.410Z,50.00
2017-07-23T14:17:36.981Z,51.10
2017-07-23T14:20:09.393Z,50.70
2017-07-23T14:22:38.060Z,50.50
2017-07-23T14:25:05.629Z,50.60
2017-07-23T14:27:33.208Z,48.80
2017-07-23T14:30:00.821Z,49.60
2017-07-23T14:32:28.394Z,49.80
2017-07-23T14:34:56.066Z,50.40
2017-07-23T14:37:23.705Z,49.40
2017-07-23T14:39:53.183Z,50.10
2017-07-23T14:42:21.633Z,50.20
2017-07-23T14:44:49.236Z,50.40
2017-07-23T14:47:17.601Z,51.00
2017-07-23T14:49:45.176Z,50.40
2017-07-23T14:52:12.901Z,50.70
2017-07-23T14:54:40.466Z,51.10
2017-07-23T14:57:08.044Z,52.00
2017-07-23T14:59:35.977Z,51.50
2017-07-23T15:02:03.530Z,51.60
2017-07-23T15:04:31.177Z,52.50
2017-07-23T15:06:58.774Z,52.60
2017-07-23T15:09:27.336Z,50.20
2017-07-23T15:11:54.974Z,51.90
2017-07-23T15:14:23.310Z,52.90
2017-07-23T15:16:50.888Z,53.00
2017-07-23T15:19:18.506Z,54.70
2017-07-23T15:21:46.282Z,53.30
2017-07-23T15:24:13.861Z,55.80
2017-07-23T15:26:41.443Z,64.80
2017-07-23T15:29:09.053Z,72.70
2017-07-23T15:31:38.532Z,77.80
2017-07-23T15:34:17.774Z,83.90
2017-07-23T15:36:45.398Z,84.80
2017-07-23T15:39:12.975Z,84.80
2017-07-23T15:41:41.315Z,89.40
2017-07-23T15:44:08.980Z,88.20
2017-07-23T15:46:36.547Z,88.00
2017-07-23T15:49:04.108Z,87.30
2017-07-23T15:51:32.619Z,89.50
2017-07-23T15:54:00.218Z,88.50
2017-07-23T15:56:27.796Z,85.10
2017-07-23T15:58:55.454Z,83.10
2017-07-23T16:01:23.127Z,84.00
2017-07-23T16:03:50.711Z,82.70
2017-07-23T16:06:18.340Z,86.00
2017-07-23T16:08:45.895Z,83.40
2017-07-23T16:11:13.546Z,80.80
2017-07-23T16:13:41.182Z,82.80
2017-07-23T16:16:09.535Z,81.00
2017-07-23T16:18:37.115Z,80.90
2017-07-23T16:21:05.197Z,78.40
2017-07-23T16:23:33.608Z,78.80
2017-07-23T16:26:01.206Z,78.00
2017-07-23T16:28:28.778Z,78.30
2017-07-23T16:30:56.391Z,76.90
2017-07-23T16:33:23.981Z,79.00
2017-07-23T16:35:51.597Z,77.00
2017-07-23T16:38:21.657Z,76.70
2017-07-23T16:40:49.256Z,78.70
2017-07-23T16:43:16.880Z,76.80
2017-07-23T16:45:44.525Z,72.90
2017-07-23T16:48:12.103Z,75.40
2017-07-23T16:50:40.054Z,75.50
2017-07-23T16:53:07.651Z,74.60
2017-07-23T16:55:35.267Z,75.00
2017-07-23T16:58:02.890Z,73.70
2017-07-23T17:00:30.414Z,73.60
2017-07-23T17:02:58.025Z,72.70
2017-07-23T17:05:25.631Z,70.40
2017-07-23T17:07:53.237Z,69.00
2017-07-23T17:10:21.214Z,69.70
2017-07-23T17:12:49.575Z,72.10
2017-07-23T17:15:17.165Z,71.30
2017-07-23T17:17:45.565Z,69.80
2017-07-23T17:20:13.168Z,69.80
2017-07-23T17:22:40.733Z,71.20
2017-07-23T17:25:08.456Z,72.10
2017-07-23T17:27:36.067Z,71.50
2017-07-23T17:30:03.659Z,72.50
2017-07-23T17:32:31.239Z,73.40
2017-07-23T17:35:01.126Z,72.90
2017-07-23T17:37:29.511Z,77.40
2017-07-23T17:39:57.121Z,77.40
2017-07-23T17:42:24.701Z,78.80
2017-07-23T17:44:52.278Z,79.50
2017-07-23T17:47:20.749Z,78.30
2017-07-23T17:49:48.308Z,78.80
2017-07-23T17:52:15.981Z,79.10
2017-07-23T17:54:43.583Z,78.50
2017-07-23T17:57:11.146Z,78.40
2017-07-23T17:59:38.714Z,79.40
2017-07-23T18:02:06.325Z,78.00
2017-07-23T18:04:34.680Z,79.00
2017-07-23T18:07:02.262Z,78.90
2017-07-23T18:09:29.890Z,76.30
2017-07-23T18:11:57.474Z,77.40
2017-07-23T18:14:25.103Z,75.90
2017-07-23T18:16:52.769Z,76.40
2017-07-23T18:19:20.345Z,77.10
2017-07-23T18:21:47.939Z,76.00
2017-07-23T18:24:16.345Z,77.90
2017-07-23T18:26:43.937Z,76.90
2017-07-23T18:29:13.106Z,76.90
2017-07-23T18:31:40.734Z,76.50
2017-07-23T18:34:08.298Z,77.20
2017-07-23T18:36:36.854Z,77.00
2017-07-23T18:39:04.447Z,77.10
2017-07-23T18:41:32.026Z,77.50
2017-07-23T18:43:59.610Z,75.30
2017-07-23T18:46:27.227Z,75.50
2017-07-23T18:48:55.060Z,75.60
2017-07-23T19:04:22.667Z,75.80
2017-07-23T19:06:51.766Z,74.00
2017-07-23T19:09:19.365Z,74.00
2017-07-23T19:11:46.955Z,73.60
2017-07-23T19:14:14.606Z,73.70
2017-07-23T19:16:42.261Z,72.80
2017-07-23T19:19:09.862Z,73.10
2017-07-23T19:21:38.243Z,71.90
2017-07-23T19:24:06.630Z,72.00
2017-07-23T19:26:34.272Z,71.90
2017-07-23T19:29:01.914Z,71.40
2017-07-23T19:31:29.463Z,71.80
2017-07-23T19:33:57.095Z,72.40
2017-07-23T19:36:24.749Z,73.10
2017-07-23T19:38:53.129Z,72.60
2017-07-23T19:41:20.722Z,72.50
2017-07-23T19:43:48.321Z,72.40
2017-07-23T19:46:15.896Z,72.20
2017-07-23T19:48:43.462Z,72.40
2017-07-23T19:51:11.845Z,72.40
2017-07-23T19:53:39.430Z,72.30
2017-07-23T19:56:07.071Z,73.70
2017-07-23T19:58:34.701Z,74.40
2017-07-23T20:01:02.255Z,73.60
2017-07-23T20:03:29.849Z,73.70
2017-07-23T20:05:58.794Z,73.40
2017-07-23T20:08:26.367Z,73.20
2017-07-23T20:10:53.966Z,73.20
2017-07-23T20:13:22.313Z,74.80
2017-07-23T20:15:49.872Z,74.80
2017-07-23T20:18:17.534Z,74.50
2017-07-23T20:20:45.106Z,74.50
2017-07-23T20:23:12.731Z,74.10
2017-07-23T20:25:40.353Z,75.20
2017-07-23T20:28:08.766Z,74.70
2017-07-23T20:30:36.399Z,74.20
2017-07-23T20:33:04.814Z,76.20
2017-07-23T20:35:32.410Z,76.00
2017-07-23T20:38:00.016Z,76.00
2017-07-23T20:40:27.628Z,75.00
2017-07-23T20:42:55.248Z,76.00
2017-07-23T20:45:22.833Z,77.10
2017-07-23T20:47:50.417Z,77.90
2017-07-23T20:50:17.985Z,78.40
2017-07-23T20:52:45.551Z,78.10
2017-07-23T20:55:13.214Z,78.30
2017-07-23T20:57:41.792Z,78.30
2017-07-23T21:00:09.368Z,77.40
2017-07-23T21:02:37.754Z,78.90
2017-07-23T21:05:06.114Z,78.80
2017-07-23T21:07:33.729Z,78.70
2017-07-23T21:10:01.851Z,79.40
2017-07-23T21:12:29.435Z,80.00
2017-07-23T21:14:57.023Z,80.30
2017-07-23T21:17:24.579Z,80.80
2017-07-23T21:19:52.181Z,80.50
2017-07-23T21:22:19.753Z,81.70
2017-07-23T21:24:47.354Z,81.40
2017-07-23T21:27:14.986Z,81.00
2017-07-23T21:29:42.544Z,81.90
2017-07-23T21:32:10.117Z,81.60
2017-07-23T21:34:38.512Z,81.30
2017-07-23T21:37:06.137Z,81.10
2017-07-23T21:39:33.721Z,81.30
2017-07-23T21:42:02.130Z,81.60
2017-07-23T21:44:29.719Z,81.40
2017-07-23T21:46:57.298Z,81.40
2017-07-23T21:49:24.862Z,81.70
2017-07-23T21:51:52.460Z,81.90
2017-07-23T21:54:20.071Z,81.50
2017-07-23T21:56:47.678Z,83.10
2017-07-23T21:59:15.335Z,81.80
2017-07-23T22:01:42.918Z,81.90
2017-07-23T22:04:10.526Z,81.40
2017-07-23T22:06:38.094Z,81.90
2017-07-23T22:09:05.681Z,82.30
2017-07-23T22:11:33.479Z,82.00
2017-07-23T22:14:01.028Z,82.70
2017-07-23T22:16:28.616Z,82.40
2017-07-23T22:18:56.199Z,82.50
2017-07-23T22:21:23.761Z,82.80
2017-07-23T22:23:51.361Z,82.70
2017-07-23T22:26:20.659Z,83.20
2017-07-23T22:28:49.024Z,83.00
2017-07-23T22:31:17.376Z,83.00
2017-07-23T22:33:44.942Z,83.60
2017-07-23T22:36:12.566Z,83.00
2017-07-23T22:38:40.140Z,83.20
2017-07-23T22:41:07.749Z,83.00
2017-07-23T22:43:35.319Z,83.10
2017-07-23T22:46:03.652Z,83.80
2017-07-23T22:48:31.238Z,83.60
2017-07-23T22:50:58.817Z,82.80
2017-07-23T22:53:26.471Z,83.10
2017-07-23T22:55:54.849Z,83.40
2017-07-23T22:58:23.182Z,83.10
2017-07-23T23:00:50.755Z,82.80
2017-07-23T23:03:18.396Z,82.60
2017-07-23T23:05:45.960Z,83.00
2017-07-23T23:08:13.529Z,83.00
2017-07-23T23:10:41.890Z,83.30
2017-07-23T23:13:09.462Z,82.80
2017-07-23T23:15:37.035Z,82.80
2017-07-23T23:18:04.620Z,82.70
2017-07-23T23:20:32.196Z,83.00
2017-07-23T23:22:59.772Z,82.30
2017-07-23T23:25:28.157Z,81.40
2017-07-23T23:27:55.807Z,81.40
2017-07-23T23:30:24.149Z,81.90
2017-07-23T23:32:51.714Z,81.80
2017-07-23T23:35:19.290Z,82.20
2017-07-23T23:37:46.880Z,82.30
2017-07-23T23:40:14.470Z,82.60
2017-07-23T23:42:42.047Z,83.10
2017-07-23T23:45:09.622Z,83.20
2017-07-23T23:47:37.240Z,83.40
2017-07-23T23:50:04.810Z,82.90
2017-07-23T23:52:32.410Z,82.70
2017-07-23T23:55:00.035Z,82.80
2017-07-23T23:57:27.647Z,84.30
2017-07-23T23:59:55.219Z,83.90
